sensor_id;sensor_type;location;lat;lon;timestamp;P1;durP1;ratioP1;P2;durP2;ratioP2
17714;SDS011;8977;50.902;4.314;2022-07-11T00:00:04;3.38;;;3.08;;
17714;SDS011;8977;50.902;4.314;2022-07-11T00:03:02;5.00;;;3.50;;
17714;SDS011;8977;50.902;4.314;2022-07-11T00:05:28;4.00;;;3.10;;
17714;SDS011;8977;50.902;4.314;2022-07-11T00:07:55;2.90;;;2.70;;
17714;SDS011;8977;50.902;4.314;2022-07-11T00:10:22;5.60;;;3.30;;
17714;SDS011;8977;50.902;4.314;2022-07-11T00:12:49;5.75;;;3.67;;
17714;SDS011;8977;50.902;4.314;2022-07-11T00:15:16;4.25;;;3.08;;
17714;SDS011;8977;50.902;4.314;2022-07-11T00:17:43;3.78;;;3.33;;
17714;SDS011;8977;50.902;4.314;2022-07-11T00:20:11;4.22;;;3.38;;
17714;SDS011;8977;50.902;4.314;2022-07-11T00:22:38;7.43;;;3.85;;
17714;SDS011;8977;50.902;4.314;2022-07-11T00:25:06;5.25;;;3.53;;
17714;SDS011;8977;50.902;4.314;2022-07-11T00:27:33;4.47;;;3.10;;
17714;SDS011;8977;50.902;4.314;2022-07-11T00:30:00;4.45;;;2.97;;
17714;SDS011;8977;50.902;4.314;2022-07-11T00:32:27;3.75;;;3.10;;
17714;SDS011;8977;50.902;4.314;2022-07-11T00:34:54;4.25;;;3.13;;
17714;SDS011;8977;50.902;4.314;2022-07-11T00:37:22;5.47;;;3.10;;
17714;SDS011;8977;50.902;4.314;2022-07-11T00:39:49;4.63;;;3.10;;
17714;SDS011;8977;50.902;4.314;2022-07-11T00:42:16;3.20;;;2.90;;
17714;SDS011;8977;50.902;4.314;2022-07-11T00:44:43;4.70;;;3.28;;
17714;SDS011;8977;50.902;4.314;2022-07-11T00:47:10;4.53;;;3.10;;
17714;SDS011;8977;50.902;4.314;2022-07-11T00:49:37;3.58;;;3.28;;
17714;SDS011;8977;50.902;4.314;2022-07-11T00:52:04;6.20;;;3.40;;
17714;SDS011;8977;50.902;4.314;2022-07-11T00:54:33;5.82;;;3.65;;
17714;SDS011;8977;50.902;4.314;2022-07-11T00:57:00;4.88;;;3.70;;
17714;SDS011;8977;50.902;4.314;2022-07-11T00:59:27;6.88;;;3.90;;
17714;SDS011;8977;50.902;4.314;2022-07-11T01:01:56;3.95;;;3.55;;
17714;SDS011;8977;50.902;4.314;2022-07-11T01:04:23;3.50;;;3.20;;
17714;SDS011;8977;50.902;4.314;2022-07-11T01:06:49;4.05;;;3.10;;
17714;SDS011;8977;50.902;4.314;2022-07-11T01:09:16;4.50;;;3.30;;
17714;SDS011;8977;50.902;4.314;2022-07-11T01:11:45;5.07;;;3.65;;
17714;SDS011;8977;50.902;4.314;2022-07-11T01:14:12;4.05;;;3.65;;
17714;SDS011;8977;50.902;4.314;2022-07-11T01:16:38;5.25;;;3.75;;
17714;SDS011;8977;50.902;4.314;2022-07-11T01:19:05;4.50;;;3.75;;
17714;SDS011;8977;50.902;4.314;2022-07-11T01:21:38;6.68;;;3.72;;
17714;SDS011;8977;50.902;4.314;2022-07-11T01:24:07;4.10;;;3.63;;
17714;SDS011;8977;50.902;4.314;2022-07-11T01:26:35;4.55;;;3.80;;
17714;SDS011;8977;50.902;4.314;2022-07-11T01:29:06;5.85;;;3.88;;
17714;SDS011;8977;50.902;4.314;2022-07-11T01:31:34;5.07;;;3.58;;
17714;SDS011;8977;50.902;4.314;2022-07-11T01:34:01;4.70;;;3.88;;
17714;SDS011;8977;50.902;4.314;2022-07-11T01:36:28;4.43;;;4.00;;
17714;SDS011;8977;50.902;4.314;2022-07-11T01:38:55;8.27;;;4.60;;
17714;SDS011;8977;50.902;4.314;2022-07-11T01:41:23;8.68;;;4.80;;
17714;SDS011;8977;50.902;4.314;2022-07-11T01:43:50;4.95;;;4.15;;
17714;SDS011;8977;50.902;4.314;2022-07-11T01:46:17;5.25;;;4.15;;
17714;SDS011;8977;50.902;4.314;2022-07-11T01:48:46;8.25;;;5.30;;
17714;SDS011;8977;50.902;4.314;2022-07-11T01:51:13;6.57;;;5.05;;
17714;SDS011;8977;50.902;4.314;2022-07-11T01:53:40;6.68;;;5.10;;
17714;SDS011;8977;50.902;4.314;2022-07-11T01:56:07;6.85;;;5.28;;
17714;SDS011;8977;50.902;4.314;2022-07-11T01:58:35;6.78;;;5.38;;
17714;SDS011;8977;50.902;4.314;2022-07-11T02:01:02;6.03;;;5.43;;
17714;SDS011;8977;50.902;4.314;2022-07-11T02:03:29;7.47;;;4.97;;
17714;SDS011;8977;50.902;4.314;2022-07-11T02:05:56;6.10;;;5.13;;
17714;SDS011;8977;50.902;4.314;2022-07-11T02:08:23;5.68;;;5.05;;
17714;SDS011;8977;50.902;4.314;2022-07-11T02:10:51;9.13;;;5.95;;
17714;SDS011;8977;50.902;4.314;2022-07-11T02:13:18;6.90;;;5.85;;
17714;SDS011;8977;50.902;4.314;2022-07-11T02:15:49;7.07;;;5.53;;
17714;SDS011;8977;50.902;4.314;2022-07-11T02:18:18;7.85;;;5.63;;
17714;SDS011;8977;50.902;4.314;2022-07-11T02:20:46;6.32;;;5.72;;
17714;SDS011;8977;50.902;4.314;2022-07-11T02:23:14;6.07;;;5.47;;
17714;SDS011;8977;50.902;4.314;2022-07-11T02:25:41;7.07;;;5.70;;
17714;SDS011;8977;50.902;4.314;2022-07-11T02:28:08;7.70;;;5.63;;
17714;SDS011;8977;50.902;4.314;2022-07-11T02:30:36;8.00;;;5.80;;
17714;SDS011;8977;50.902;4.314;2022-07-11T02:33:05;8.68;;;6.30;;
17714;SDS011;8977;50.902;4.314;2022-07-11T02:35:33;6.25;;;5.65;;
17714;SDS011;8977;50.902;4.314;2022-07-11T02:38:02;7.07;;;5.45;;
17714;SDS011;8977;50.902;4.314;2022-07-11T02:40:29;7.78;;;5.60;;
17714;SDS011;8977;50.902;4.314;2022-07-11T02:42:56;5.90;;;5.30;;
17714;SDS011;8977;50.902;4.314;2022-07-11T02:45:23;6.20;;;5.10;;
17714;SDS011;8977;50.902;4.314;2022-07-11T02:47:50;8.73;;;5.80;;
17714;SDS011;8977;50.902;4.314;2022-07-11T02:50:18;5.88;;;4.78;;
17714;SDS011;8977;50.902;4.314;2022-07-11T02:52:45;7.95;;;4.70;;
17714;SDS011;8977;50.902;4.314;2022-07-11T02:55:12;5.47;;;4.97;;
17714;SDS011;8977;50.902;4.314;2022-07-11T02:57:40;6.28;;;5.40;;
17714;SDS011;8977;50.902;4.314;2022-07-11T03:00:09;9.63;;;6.18;;
17714;SDS011;8977;50.902;4.314;2022-07-11T03:02:38;7.53;;;5.55;;
17714;SDS011;8977;50.902;4.314;2022-07-11T03:05:05;6.93;;;5.45;;
17714;SDS011;8977;50.902;4.314;2022-07-11T03:07:34;8.25;;;6.00;;
17714;SDS011;8977;50.902;4.314;2022-07-11T03:10:01;6.65;;;5.82;;
17714;SDS011;8977;50.902;4.314;2022-07-11T03:12:29;7.35;;;6.10;;
17714;SDS011;8977;50.902;4.314;2022-07-11T03:14:56;7.15;;;6.00;;
17714;SDS011;8977;50.902;4.314;2022-07-11T03:17:23;8.95;;;8.02;;
17714;SDS011;8977;50.902;4.314;2022-07-11T03:19:50;10.40;;;8.48;;
17714;SDS011;8977;50.902;4.314;2022-07-11T03:22:17;11.50;;;8.20;;
17714;SDS011;8977;50.902;4.314;2022-07-11T03:24:45;12.00;;;9.57;;
17714;SDS011;8977;50.902;4.314;2022-07-11T03:27:12;10.68;;;9.57;;
17714;SDS011;8977;50.902;4.314;2022-07-11T03:29:39;11.07;;;9.88;;
17714;SDS011;8977;50.902;4.314;2022-07-11T03:32:07;11.55;;;8.95;;
17714;SDS011;8977;50.902;4.314;2022-07-11T03:34:34;10.35;;;8.68;;
17714;SDS011;8977;50.902;4.314;2022-07-11T03:37:01;10.43;;;8.98;;
17714;SDS011;8977;50.902;4.314;2022-07-11T03:39:29;11.98;;;10.75;;
17714;SDS011;8977;50.902;4.314;2022-07-11T03:41:58;11.60;;;10.23;;
17714;SDS011;8977;50.902;4.314;2022-07-11T03:44:25;10.32;;;9.32;;
17714;SDS011;8977;50.902;4.314;2022-07-11T03:46:52;12.18;;;10.07;;
17714;SDS011;8977;50.902;4.314;2022-07-11T03:49:19;13.20;;;10.68;;
17714;SDS011;8977;50.902;4.314;2022-07-11T03:51:46;10.93;;;9.82;;
17714;SDS011;8977;50.902;4.314;2022-07-11T03:54:13;11.98;;;10.57;;
17714;SDS011;8977;50.902;4.314;2022-07-11T03:56:39;11.35;;;10.20;;
17714;SDS011;8977;50.902;4.314;2022-07-11T03:59:08;12.85;;;10.13;;
17714;SDS011;8977;50.902;4.314;2022-07-11T04:01:35;11.55;;;9.82;;
17714;SDS011;8977;50.902;4.314;2022-07-11T04:04:02;13.48;;;9.50;;
17714;SDS011;8977;50.902;4.314;2022-07-11T04:06:30;10.52;;;9.43;;
17714;SDS011;8977;50.902;4.314;2022-07-11T04:08:57;11.18;;;9.68;;
17714;SDS011;8977;50.902;4.314;2022-07-11T04:11:24;10.48;;;8.80;;
17714;SDS011;8977;50.902;4.314;2022-07-11T04:13:51;9.45;;;8.55;;
17714;SDS011;8977;50.902;4.314;2022-07-11T04:16:20;9.95;;;8.95;;
17714;SDS011;8977;50.902;4.314;2022-07-11T04:18:46;12.05;;;9.35;;
17714;SDS011;8977;50.902;4.314;2022-07-11T04:21:13;9.27;;;8.38;;
17714;SDS011;8977;50.902;4.314;2022-07-11T04:23:40;10.45;;;8.10;;
17714;SDS011;8977;50.902;4.314;2022-07-11T04:26:07;9.60;;;8.50;;
17714;SDS011;8977;50.902;4.314;2022-07-11T04:28:34;10.35;;;8.55;;
17714;SDS011;8977;50.902;4.314;2022-07-11T04:31:01;10.93;;;8.43;;
17714;SDS011;8977;50.902;4.314;2022-07-11T04:33:29;9.60;;;8.57;;
17714;SDS011;8977;50.902;4.314;2022-07-11T04:35:56;11.70;;;8.93;;
17714;SDS011;8977;50.902;4.314;2022-07-11T04:38:22;9.55;;;8.43;;
17714;SDS011;8977;50.902;4.314;2022-07-11T04:40:49;9.55;;;8.52;;
17714;SDS011;8977;50.902;4.314;2022-07-11T04:43:16;10.85;;;9.07;;
17714;SDS011;8977;50.902;4.314;2022-07-11T04:45:43;13.27;;;10.13;;
17714;SDS011;8977;50.902;4.314;2022-07-11T04:48:10;14.52;;;10.75;;
17714;SDS011;8977;50.902;4.314;2022-07-11T04:50:38;12.57;;;9.93;;
17714;SDS011;8977;50.902;4.314;2022-07-11T04:53:08;15.50;;;11.88;;
17714;SDS011;8977;50.902;4.314;2022-07-11T04:55:36;15.75;;;13.75;;
17714;SDS011;8977;50.902;4.314;2022-07-11T04:58:06;16.05;;;13.65;;
17714;SDS011;8977;50.902;4.314;2022-07-11T05:00:33;17.05;;;14.43;;
17714;SDS011;8977;50.902;4.314;2022-07-11T05:03:00;18.15;;;14.65;;
17714;SDS011;8977;50.902;4.314;2022-07-11T05:05:27;19.38;;;14.57;;
17714;SDS011;8977;50.902;4.314;2022-07-11T05:07:55;17.85;;;13.38;;
17714;SDS011;8977;50.902;4.314;2022-07-11T05:10:22;16.83;;;13.75;;
17714;SDS011;8977;50.902;4.314;2022-07-11T05:12:49;16.52;;;14.35;;
17714;SDS011;8977;50.902;4.314;2022-07-11T05:15:16;16.25;;;13.68;;
17714;SDS011;8977;50.902;4.314;2022-07-11T05:17:43;17.80;;;15.18;;
17714;SDS011;8977;50.902;4.314;2022-07-11T05:20:10;17.92;;;14.85;;
17714;SDS011;8977;50.902;4.314;2022-07-11T05:22:37;23.83;;;16.02;;
17714;SDS011;8977;50.902;4.314;2022-07-11T05:25:06;19.33;;;15.32;;
17714;SDS011;8977;50.902;4.314;2022-07-11T05:27:33;18.20;;;15.13;;
17714;SDS011;8977;50.902;4.314;2022-07-11T05:30:00;18.10;;;14.02;;
17714;SDS011;8977;50.902;4.314;2022-07-11T05:32:27;18.85;;;14.60;;
17714;SDS011;8977;50.902;4.314;2022-07-11T05:34:54;18.35;;;14.13;;
17714;SDS011;8977;50.902;4.314;2022-07-11T05:37:22;18.85;;;14.52;;
17714;SDS011;8977;50.902;4.314;2022-07-11T05:39:49;17.58;;;14.70;;
17714;SDS011;8977;50.902;4.314;2022-07-11T05:42:17;18.88;;;14.27;;
17714;SDS011;8977;50.902;4.314;2022-07-11T05:44:44;22.55;;;15.48;;
17714;SDS011;8977;50.902;4.314;2022-07-11T05:47:11;21.60;;;13.95;;
17714;SDS011;8977;50.902;4.314;2022-07-11T05:49:38;17.42;;;14.68;;
17714;SDS011;8977;50.902;4.314;2022-07-11T05:52:05;24.80;;;14.48;;
17714;SDS011;8977;50.902;4.314;2022-07-11T05:54:32;17.15;;;13.82;;
17714;SDS011;8977;50.902;4.314;2022-07-11T05:56:59;16.75;;;12.93;;
17714;SDS011;8977;50.902;4.314;2022-07-11T05:59:28;20.77;;;13.90;;
17714;SDS011;8977;50.902;4.314;2022-07-11T06:01:56;17.83;;;12.80;;
17714;SDS011;8977;50.902;4.314;2022-07-11T06:04:23;16.55;;;13.63;;
17714;SDS011;8977;50.902;4.314;2022-07-11T06:06:50;15.95;;;12.00;;
17714;SDS011;8977;50.902;4.314;2022-07-11T06:09:16;15.15;;;12.90;;
17714;SDS011;8977;50.902;4.314;2022-07-11T06:11:42;17.77;;;13.32;;
17714;SDS011;8977;50.902;4.314;2022-07-11T06:14:09;17.23;;;13.02;;
17714;SDS011;8977;50.902;4.314;2022-07-11T06:16:37;14.32;;;11.43;;
17714;SDS011;8977;50.902;4.314;2022-07-11T06:19:04;15.60;;;11.07;;
17714;SDS011;8977;50.902;4.314;2022-07-11T06:21:31;18.45;;;12.73;;
17714;SDS011;8977;50.902;4.314;2022-07-11T06:23:58;16.92;;;12.73;;
17714;SDS011;8977;50.902;4.314;2022-07-11T06:26:25;14.23;;;11.38;;
17714;SDS011;8977;50.902;4.314;2022-07-11T06:28:52;14.50;;;10.80;;
17714;SDS011;8977;50.902;4.314;2022-07-11T06:31:19;14.38;;;11.07;;
17714;SDS011;8977;50.902;4.314;2022-07-11T06:33:47;15.05;;;9.70;;
17714;SDS011;8977;50.902;4.314;2022-07-11T06:36:19;12.98;;;10.05;;
17714;SDS011;8977;50.902;4.314;2022-07-11T06:38:48;12.60;;;9.50;;
17714;SDS011;8977;50.902;4.314;2022-07-11T06:41:14;13.13;;;8.80;;
17714;SDS011;8977;50.902;4.314;2022-07-11T06:43:41;11.40;;;8.02;;
17714;SDS011;8977;50.902;4.314;2022-07-11T06:46:08;13.75;;;9.05;;
17714;SDS011;8977;50.902;4.314;2022-07-11T06:48:35;12.77;;;8.70;;
17714;SDS011;8977;50.902;4.314;2022-07-11T06:51:03;11.77;;;7.85;;
17714;SDS011;8977;50.902;4.314;2022-07-11T06:53:30;11.70;;;7.60;;
17714;SDS011;8977;50.902;4.314;2022-07-11T06:55:57;13.68;;;7.55;;
17714;SDS011;8977;50.902;4.314;2022-07-11T06:58:24;9.88;;;7.47;;
17714;SDS011;8977;50.902;4.314;2022-07-11T07:01:00;11.13;;;7.45;;
17714;SDS011;8977;50.902;4.314;2022-07-11T07:03:28;10.85;;;6.50;;
17714;SDS011;8977;50.902;4.314;2022-07-11T07:05:55;10.88;;;6.25;;
17714;SDS011;8977;50.902;4.314;2022-07-11T07:08:24;9.38;;;7.25;;
17714;SDS011;8977;50.902;4.314;2022-07-11T07:10:53;12.25;;;6.60;;
17714;SDS011;8977;50.902;4.314;2022-07-11T07:13:20;9.63;;;6.75;;
17714;SDS011;8977;50.902;4.314;2022-07-11T07:15:50;8.07;;;5.93;;
17714;SDS011;8977;50.902;4.314;2022-07-11T07:18:18;11.13;;;6.57;;
17714;SDS011;8977;50.902;4.314;2022-07-11T07:20:45;6.30;;;4.70;;
17714;SDS011;8977;50.902;4.314;2022-07-11T07:23:13;9.55;;;5.80;;
17714;SDS011;8977;50.902;4.314;2022-07-11T07:25:41;11.60;;;5.47;;
17714;SDS011;8977;50.902;4.314;2022-07-11T07:28:08;9.80;;;5.20;;
17714;SDS011;8977;50.902;4.314;2022-07-11T07:30:35;6.45;;;4.97;;
17714;SDS011;8977;50.902;4.314;2022-07-11T07:33:02;7.95;;;5.10;;
17714;SDS011;8977;50.902;4.314;2022-07-11T07:35:29;6.25;;;5.03;;
17714;SDS011;8977;50.902;4.314;2022-07-11T07:37:56;5.68;;;5.00;;
17714;SDS011;8977;50.902;4.314;2022-07-11T07:40:22;7.45;;;5.70;;
17714;SDS011;8977;50.902;4.314;2022-07-11T07:42:51;7.45;;;5.53;;
17714;SDS011;8977;50.902;4.314;2022-07-11T07:45:17;9.50;;;5.45;;
17714;SDS011;8977;50.902;4.314;2022-07-11T07:47:44;6.82;;;4.68;;
17714;SDS011;8977;50.902;4.314;2022-07-11T07:50:11;7.30;;;5.75;;
17714;SDS011;8977;50.902;4.314;2022-07-11T07:52:38;6.35;;;5.65;;
17714;SDS011;8977;50.902;4.314;2022-07-11T07:55:05;6.13;;;5.53;;
17714;SDS011;8977;50.902;4.314;2022-07-11T07:57:33;10.10;;;5.35;;
17714;SDS011;8977;50.902;4.314;2022-07-11T08:00:02;8.40;;;5.55;;
17714;SDS011;8977;50.902;4.314;2022-07-11T08:02:47;9.10;;;5.82;;
17714;SDS011;8977;50.902;4.314;2022-07-11T08:05:15;9.60;;;5.68;;
17714;SDS011;8977;50.902;4.314;2022-07-11T08:07:42;6.05;;;4.50;;
17714;SDS011;8977;50.902;4.314;2022-07-11T08:10:09;7.20;;;5.13;;
17714;SDS011;8977;50.902;4.314;2022-07-11T08:12:38;6.68;;;4.63;;
17714;SDS011;8977;50.902;4.314;2022-07-11T08:15:06;4.72;;;3.97;;
17714;SDS011;8977;50.902;4.314;2022-07-11T08:17:34;6.57;;;4.18;;
17714;SDS011;8977;50.902;4.314;2022-07-11T08:20:01;8.27;;;5.47;;
17714;SDS011;8977;50.902;4.314;2022-07-11T08:22:28;8.57;;;5.60;;
17714;SDS011;8977;50.902;4.314;2022-07-11T08:24:55;7.25;;;5.30;;
17714;SDS011;8977;50.902;4.314;2022-07-11T08:27:21;8.10;;;4.90;;
17714;SDS011;8977;50.902;4.314;2022-07-11T08:29:48;6.07;;;4.05;;
17714;SDS011;8977;50.902;4.314;2022-07-11T08:32:17;7.85;;;4.65;;
17714;SDS011;8977;50.902;4.314;2022-07-11T08:34:44;4.15;;;3.72;;
17714;SDS011;8977;50.902;4.314;2022-07-11T08:37:10;5.85;;;4.03;;
17714;SDS011;8977;50.902;4.314;2022-07-11T08:39:37;6.05;;;4.70;;
17714;SDS011;8977;50.902;4.314;2022-07-11T08:42:04;5.25;;;4.57;;
17714;SDS011;8977;50.902;4.314;2022-07-11T08:44:31;6.05;;;3.70;;
17714;SDS011;8977;50.902;4.314;2022-07-11T08:47:00;5.28;;;4.45;;
17714;SDS011;8977;50.902;4.314;2022-07-11T08:49:30;5.45;;;4.20;;
17714;SDS011;8977;50.902;4.314;2022-07-11T08:51:58;5.20;;;4.63;;
17714;SDS011;8977;50.902;4.314;2022-07-11T08:54:25;7.45;;;4.68;;
17714;SDS011;8977;50.902;4.314;2022-07-11T08:56:51;6.72;;;4.43;;
17714;SDS011;8977;50.902;4.314;2022-07-11T08:59:21;5.35;;;4.05;;
17714;SDS011;8977;50.902;4.314;2022-07-11T09:01:49;5.45;;;4.38;;
17714;SDS011;8977;50.902;4.314;2022-07-11T09:04:21;6.35;;;4.68;;
17714;SDS011;8977;50.902;4.314;2022-07-11T09:06:50;6.50;;;4.57;;
17714;SDS011;8977;50.902;4.314;2022-07-11T09:09:17;7.13;;;4.65;;
17714;SDS011;8977;50.902;4.314;2022-07-11T09:11:48;4.35;;;3.53;;
17714;SDS011;8977;50.902;4.314;2022-07-11T09:14:20;4.93;;;3.67;;
17714;SDS011;8977;50.902;4.314;2022-07-11T09:16:52;3.83;;;3.40;;
17714;SDS011;8977;50.902;4.314;2022-07-11T09:19:21;5.18;;;3.38;;
17714;SDS011;8977;50.902;4.314;2022-07-11T09:22:03;4.40;;;3.58;;
17714;SDS011;8977;50.902;4.314;2022-07-11T09:24:53;5.40;;;3.75;;
17714;SDS011;8977;50.902;4.314;2022-07-11T09:27:39;4.57;;;3.33;;
17714;SDS011;8977;50.902;4.314;2022-07-11T09:30:17;5.00;;;3.10;;
17714;SDS011;8977;50.902;4.314;2022-07-11T09:32:57;5.43;;;3.13;;
17714;SDS011;8977;50.902;4.314;2022-07-11T09:35:25;5.35;;;3.50;;
17714;SDS011;8977;50.902;4.314;2022-07-11T09:37:55;5.82;;;3.30;;
17714;SDS011;8977;50.902;4.314;2022-07-11T09:40:22;5.93;;;3.88;;
17714;SDS011;8977;50.902;4.314;2022-07-11T09:42:51;4.70;;;3.25;;
17714;SDS011;8977;50.902;4.314;2022-07-11T09:45:19;3.78;;;2.72;;
17714;SDS011;8977;50.902;4.314;2022-07-11T09:47:48;3.33;;;2.63;;
17714;SDS011;8977;50.902;4.314;2022-07-11T09:50:19;3.00;;;2.80;;
17714;SDS011;8977;50.902;4.314;2022-07-11T09:53:01;3.15;;;2.50;;
17714;SDS011;8977;50.902;4.314;2022-07-11T09:55:30;4.07;;;2.80;;
17714;SDS011;8977;50.902;4.314;2022-07-11T09:57:58;6.78;;;3.45;;
17714;SDS011;8977;50.902;4.314;2022-07-11T10:00:25;4.43;;;3.05;;
17714;SDS011;8977;50.902;4.314;2022-07-11T10:02:52;3.00;;;2.47;;
17714;SDS011;8977;50.902;4.314;2022-07-11T10:05:20;3.28;;;2.63;;
17714;SDS011;8977;50.902;4.314;2022-07-11T10:07:47;4.20;;;2.92;;
17714;SDS011;8977;50.902;4.314;2022-07-11T10:10:16;4.68;;;3.28;;
17714;SDS011;8977;50.902;4.314;2022-07-11T10:12:43;3.45;;;2.50;;
17714;SDS011;8977;50.902;4.314;2022-07-11T10:15:13;2.95;;;2.75;;
17714;SDS011;8977;50.902;4.314;2022-07-11T10:17:44;3.00;;;2.70;;
17714;SDS011;8977;50.902;4.314;2022-07-11T10:20:19;3.58;;;2.60;;
17714;SDS011;8977;50.902;4.314;2022-07-11T10:22:52;2.75;;;2.55;;
17714;SDS011;8977;50.902;4.314;2022-07-11T10:25:28;4.20;;;2.72;;
17714;SDS011;8977;50.902;4.314;2022-07-11T10:28:10;3.38;;;2.92;;
17714;SDS011;8977;50.902;4.314;2022-07-11T10:30:47;3.83;;;2.33;;
17714;SDS011;8977;50.902;4.314;2022-07-11T10:33:16;3.65;;;2.70;;
17714;SDS011;8977;50.902;4.314;2022-07-11T10:35:44;4.75;;;2.58;;
17714;SDS011;8977;50.902;4.314;2022-07-11T10:38:12;2.55;;;2.30;;
17714;SDS011;8977;50.902;4.314;2022-07-11T10:40:41;2.47;;;2.20;;
17714;SDS011;8977;50.902;4.314;2022-07-11T10:43:10;3.65;;;2.30;;
17714;SDS011;8977;50.902;4.314;2022-07-11T10:48:32;2.78;;;2.00;;
17714;SDS011;8977;50.902;4.314;2022-07-11T10:51:10;2.08;;;1.98;;
17714;SDS011;8977;50.902;4.314;2022-07-11T10:53:46;2.50;;;2.30;;
17714;SDS011;8977;50.902;4.314;2022-07-11T10:56:24;3.40;;;2.53;;
17714;SDS011;8977;50.902;4.314;2022-07-11T10:59:07;3.75;;;2.60;;
17714;SDS011;8977;50.902;4.314;2022-07-11T11:07:32;2.67;;;2.45;;
17714;SDS011;8977;50.902;4.314;2022-07-11T11:10:02;4.25;;;2.35;;
17714;SDS011;8977;50.902;4.314;2022-07-11T11:15:43;3.22;;;2.53;;
17714;SDS011;8977;50.902;4.314;2022-07-11T11:24:03;3.30;;;3.00;;
17714;SDS011;8977;50.902;4.314;2022-07-11T11:26:44;4.07;;;3.38;;
17714;SDS011;8977;50.902;4.314;2022-07-11T11:32:01;5.60;;;4.50;;
17714;SDS011;8977;50.902;4.314;2022-07-11T11:34:29;4.30;;;3.90;;
17714;SDS011;8977;50.902;4.314;2022-07-11T11:36:57;5.63;;;4.10;;
17714;SDS011;8977;50.902;4.314;2022-07-11T11:39:27;4.70;;;4.15;;
17714;SDS011;8977;50.902;4.314;2022-07-11T11:42:03;4.15;;;3.83;;
17714;SDS011;8977;50.902;4.314;2022-07-11T11:44:31;4.65;;;3.97;;
17714;SDS011;8977;50.902;4.314;2022-07-11T11:47:00;4.47;;;4.07;;
17714;SDS011;8977;50.902;4.314;2022-07-11T11:49:27;5.63;;;4.97;;
17714;SDS011;8977;50.902;4.314;2022-07-11T11:51:54;4.70;;;4.00;;
17714;SDS011;8977;50.902;4.314;2022-07-11T11:54:22;4.40;;;4.00;;
17714;SDS011;8977;50.902;4.314;2022-07-11T11:56:50;4.50;;;4.10;;
17714;SDS011;8977;50.902;4.314;2022-07-11T11:59:17;5.45;;;4.55;;
17714;SDS011;8977;50.902;4.314;2022-07-11T12:01:54;5.13;;;4.20;;
17714;SDS011;8977;50.902;4.314;2022-07-11T12:04:22;4.60;;;4.20;;
17714;SDS011;8977;50.902;4.314;2022-07-11T12:06:49;4.60;;;4.20;;
17714;SDS011;8977;50.902;4.314;2022-07-11T12:09:17;4.93;;;3.95;;
17714;SDS011;8977;50.902;4.314;2022-07-11T12:11:45;4.75;;;4.20;;
17714;SDS011;8977;50.902;4.314;2022-07-11T12:14:34;4.40;;;4.00;;
17714;SDS011;8977;50.902;4.314;2022-07-11T12:17:01;4.35;;;3.95;;
17714;SDS011;8977;50.902;4.314;2022-07-11T12:19:32;4.55;;;4.10;;
17714;SDS011;8977;50.902;4.314;2022-07-11T12:22:02;5.13;;;4.20;;
17714;SDS011;8977;50.902;4.314;2022-07-11T12:24:31;4.72;;;4.32;;
17714;SDS011;8977;50.902;4.314;2022-07-11T12:26:58;4.13;;;3.83;;
17714;SDS011;8977;50.902;4.314;2022-07-11T12:29:26;5.13;;;4.30;;
17714;SDS011;8977;50.902;4.314;2022-07-11T12:31:54;4.80;;;4.40;;
17714;SDS011;8977;50.902;4.314;2022-07-11T12:34:24;5.85;;;4.50;;
17714;SDS011;8977;50.902;4.314;2022-07-11T12:37:02;4.72;;;4.32;;
17714;SDS011;8977;50.902;4.314;2022-07-11T12:39:31;4.43;;;4.03;;
17714;SDS011;8977;50.902;4.314;2022-07-11T12:42:00;4.45;;;4.05;;
17714;SDS011;8977;50.902;4.314;2022-07-11T12:44:53;4.38;;;3.70;;
17714;SDS011;8977;50.902;4.314;2022-07-11T12:47:23;7.25;;;3.55;;
17714;SDS011;8977;50.902;4.314;2022-07-11T12:49:51;4.50;;;4.10;;
17714;SDS011;8977;50.902;4.314;2022-07-11T12:52:20;5.10;;;4.13;;
17714;SDS011;8977;50.902;4.314;2022-07-11T12:54:47;4.15;;;3.75;;
17714;SDS011;8977;50.902;4.314;2022-07-11T12:57:15;3.97;;;3.42;;
17714;SDS011;8977;50.902;4.314;2022-07-11T12:59:43;3.83;;;3.53;;
17714;SDS011;8977;50.902;4.314;2022-07-11T13:02:10;4.75;;;3.85;;
17714;SDS011;8977;50.902;4.314;2022-07-11T13:04:39;4.30;;;3.90;;
17714;SDS011;8977;50.902;4.314;2022-07-11T13:07:27;6.28;;;3.55;;
17714;SDS011;8977;50.902;4.314;2022-07-11T13:10:13;3.72;;;3.42;;
17714;SDS011;8977;50.902;4.314;2022-07-11T13:12:41;3.72;;;3.35;;
17714;SDS011;8977;50.902;4.314;2022-07-11T13:15:10;4.05;;;3.70;;
17714;SDS011;8977;50.902;4.314;2022-07-11T13:17:38;4.07;;;3.17;;
17714;SDS011;8977;50.902;4.314;2022-07-11T13:20:07;3.75;;;3.45;;
17714;SDS011;8977;50.902;4.314;2022-07-11T13:22:39;4.22;;;3.47;;
17714;SDS011;8977;50.902;4.314;2022-07-11T13:25:06;3.88;;;3.33;;
17714;SDS011;8977;50.902;4.314;2022-07-11T13:27:34;6.90;;;3.67;;
17714;SDS011;8977;50.902;4.314;2022-07-11T13:30:00;3.72;;;3.20;;
17714;SDS011;8977;50.902;4.314;2022-07-11T13:32:34;3.97;;;3.58;;
17714;SDS011;8977;50.902;4.314;2022-07-11T13:35:02;5.43;;;3.83;;
17714;SDS011;8977;50.902;4.314;2022-07-11T13:37:29;4.70;;;4.10;;
17714;SDS011;8977;50.902;4.314;2022-07-11T13:39:57;3.78;;;3.47;;
17714;SDS011;8977;50.902;4.314;2022-07-11T13:42:24;4.18;;;3.72;;
17714;SDS011;8977;50.902;4.314;2022-07-11T13:44:51;4.20;;;3.70;;
17714;SDS011;8977;50.902;4.314;2022-07-11T13:47:18;4.63;;;4.22;;
17714;SDS011;8977;50.902;4.314;2022-07-11T13:49:45;6.35;;;4.10;;
17714;SDS011;8977;50.902;4.314;2022-07-11T13:52:12;5.10;;;4.10;;
17714;SDS011;8977;50.902;4.314;2022-07-11T13:54:39;3.83;;;3.45;;
17714;SDS011;8977;50.902;4.314;2022-07-11T13:57:07;3.75;;;3.30;;
17714;SDS011;8977;50.902;4.314;2022-07-11T13:59:34;4.57;;;3.30;;
17714;SDS011;8977;50.902;4.314;2022-07-11T14:02:02;4.40;;;3.60;;
17714;SDS011;8977;50.902;4.314;2022-07-11T14:04:29;3.92;;;3.60;;
17714;SDS011;8977;50.902;4.314;2022-07-11T14:06:56;4.07;;;3.45;;
17714;SDS011;8977;50.902;4.314;2022-07-11T14:09:23;5.32;;;3.92;;
17714;SDS011;8977;50.902;4.314;2022-07-11T14:11:50;3.97;;;3.63;;
17714;SDS011;8977;50.902;4.314;2022-07-11T14:14:18;4.53;;;3.75;;
17714;SDS011;8977;50.902;4.314;2022-07-11T14:16:45;4.07;;;3.67;;
17714;SDS011;8977;50.902;4.314;2022-07-11T14:19:12;5.32;;;3.80;;
17714;SDS011;8977;50.902;4.314;2022-07-11T14:21:39;4.63;;;3.60;;
17714;SDS011;8977;50.902;4.314;2022-07-11T14:24:06;4.25;;;3.85;;
17714;SDS011;8977;50.902;4.314;2022-07-11T14:26:34;4.00;;;3.60;;
17714;SDS011;8977;50.902;4.314;2022-07-11T14:29:01;4.65;;;4.10;;
17714;SDS011;8977;50.902;4.314;2022-07-11T14:31:30;4.85;;;4.28;;
17714;SDS011;8977;50.902;4.314;2022-07-11T14:33:58;5.20;;;4.70;;
17714;SDS011;8977;50.902;4.314;2022-07-11T14:36:25;5.70;;;4.93;;
17714;SDS011;8977;50.902;4.314;2022-07-11T14:38:52;6.35;;;5.00;;
17714;SDS011;8977;50.902;4.314;2022-07-11T14:41:19;4.72;;;4.18;;
17714;SDS011;8977;50.902;4.314;2022-07-11T14:43:47;4.43;;;4.03;;
17714;SDS011;8977;50.902;4.314;2022-07-11T14:46:15;4.10;;;3.80;;
17714;SDS011;8977;50.902;4.314;2022-07-11T14:48:43;4.68;;;4.20;;
17714;SDS011;8977;50.902;4.314;2022-07-11T14:51:11;5.78;;;4.00;;
17714;SDS011;8977;50.902;4.314;2022-07-11T14:53:38;4.22;;;3.80;;
17714;SDS011;8977;50.902;4.314;2022-07-11T14:56:05;3.78;;;3.47;;
17714;SDS011;8977;50.902;4.314;2022-07-11T14:58:32;4.22;;;3.90;;
17714;SDS011;8977;50.902;4.314;2022-07-11T15:00:59;4.72;;;3.95;;
17714;SDS011;8977;50.902;4.314;2022-07-11T15:03:26;4.72;;;4.28;;
17714;SDS011;8977;50.902;4.314;2022-07-11T15:06:10;4.38;;;4.00;;
17714;SDS011;8977;50.902;4.314;2022-07-11T15:08:38;4.57;;;4.18;;
17714;SDS011;8977;50.902;4.314;2022-07-11T15:11:23;4.65;;;4.28;;
17714;SDS011;8977;50.902;4.314;2022-07-11T15:14:07;4.95;;;4.32;;
17714;SDS011;8977;50.902;4.314;2022-07-11T15:16:35;4.07;;;3.55;;
17714;SDS011;8977;50.902;4.314;2022-07-11T15:19:03;4.05;;;3.67;;
17714;SDS011;8977;50.902;4.314;2022-07-11T15:21:33;4.68;;;4.00;;
17714;SDS011;8977;50.902;4.314;2022-07-11T15:24:00;4.63;;;3.90;;